Time;durP1;ratioP1;P1;durP2;ratioP2;P2;SDS_P1;SDS_P2;PMS_P1;PMS_P2;Temp;Humidity;BMP_temperature;BMP_pressure;BME280_temperature;BME280_humidity;BME280_pressure;Samples;Min_cycle;Max_cycle;Signal;HPM_P1;HPM_P2
2023/09/17 00:00:44;;;;;;;24.73;22.02;;;14.50;99.90;;;;;;5100484;28;20108;-57
2023/09/17 00:03:10;;;;;;;25.70;22.08;;;14.50;99.90;;;;;;5101822;28;20141;-57
2023/09/17 00:05:36;;;;;;;24.27;21.73;;;14.50;99.90;;;;;;5100949;28;20048;-57
2023/09/17 00:08:03;;;;;;;25.77;21.77;;;14.50;99.90;;;;;;5101223;28;20083;-58
2023/09/17 00:10:30;;;;;;;24.73;22.13;;;14.60;99.90;;;;;;5101301;28;20043;-57
2023/09/17 00:12:56;;;;;;;24.52;21.42;;;14.60;99.90;;;;;;5100407;28;20054;-57
2023/09/17 00:15:25;;;;;;;24.98;22.20;;;14.60;99.90;;;;;;5101692;28;20119;-57
2023/09/17 00:17:51;;;;;;;24.30;21.70;;;14.50;99.90;;;;;;5098963;28;20051;-57
2023/09/17 00:20:17;;;;;;;24.17;21.15;;;14.60;99.90;;;;;;5101227;28;20055;-57
2023/09/17 00:22:43;;;;;;;23.23;20.10;;;14.60;99.90;;;;;;5100734;28;20440;-56
2023/09/17 00:25:08;;;;;;;22.13;19.77;;;14.50;99.90;;;;;;5100481;28;20097;-58
2023/09/17 00:27:34;;;;;;;25.70;21.25;;;14.50;99.90;;;;;;5101053;28;20075;-57
2023/09/17 00:30:00;;;;;;;24.60;20.65;;;14.50;99.90;;;;;;5100160;28;20402;-57
2023/09/17 00:32:25;;;;;;;24.02;20.70;;;14.50;99.90;;;;;;5101069;28;20411;-57
2023/09/17 00:34:51;;;;;;;23.65;20.48;;;14.60;99.90;;;;;;5099829;28;20050;-57
2023/09/17 00:37:18;;;;;;;21.60;18.80;;;14.60;99.90;;;;;;5101175;28;20047;-58
2023/09/17 00:39:44;;;;;;;21.98;19.73;;;14.50;99.90;;;;;;5100399;28;20044;-57
2023/09/17 00:42:10;;;;;;;22.70;19.02;;;14.50;99.90;;;;;;5100577;28;20050;-57
2023/09/17 00:44:36;;;;;;;20.55;18.35;;;14.50;99.90;;;;;;5100398;28;20090;-57
2023/09/17 00:47:04;;;;;;;20.77;18.52;;;14.50;99.90;;;;;;5099770;28;20028;-57
2023/09/17 00:49:32;;;;;;;20.70;18.50;;;14.50;99.90;;;;;;5099298;28;20090;-57
2023/09/17 00:51:58;;;;;;;19.98;17.80;;;14.50;99.90;;;;;;5099631;28;20048;-58
2023/09/17 00:54:27;;;;;;;21.20;18.58;;;14.50;99.90;;;;;;5100694;28;20079;-57
2023/09/17 00:56:54;;;;;;;22.45;19.33;;;14.50;99.90;;;;;;5099783;28;20107;-57
2023/09/17 00:59:20;;;;;;;21.30;19.02;;;14.50;99.90;;;;;;5100239;28;20202;-57
2023/09/17 01:01:46;;;;;;;22.35;19.75;;;14.50;99.90;;;;;;5100184;28;20052;-57
2023/09/17 01:04:12;;;;;;;23.30;20.80;;;14.50;99.90;;;;;;5099289;28;20047;-56
2023/09/17 01:06:40;;;;;;;22.52;19.35;;;14.50;99.90;;;;;;5100355;28;20040;-57
2023/09/17 01:09:07;;;;;;;22.63;19.67;;;14.50;99.90;;;;;;5099285;28;20123;-58
2023/09/17 01:11:35;;;;;;;21.13;18.85;;;14.40;99.90;;;;;;5099241;28;20040;-57
2023/09/17 01:14:12;;;;;;;23.48;20.17;;;14.30;99.90;;;;;;5099609;28;20421;-57
2023/09/17 01:16:39;;;;;;;21.30;17.52;;;14.40;99.90;;;;;;5099368;28;20095;-59
2023/09/17 01:19:05;;;;;;;23.13;20.15;;;14.40;99.90;;;;;;5099845;28;20040;-57
2023/09/17 01:22:01;;;;;;;20.95;18.67;;;14.40;99.90;;;;;;5098762;28;20130;-55
2023/09/17 01:24:52;;;;;;;22.77;19.35;;;14.40;99.90;;;;;;5100318;28;20075;-55
2023/09/17 01:27:19;;;;;;;23.38;20.17;;;14.40;99.90;;;;;;5099832;28;20056;-58
2023/09/17 01:29:49;;;;;;;23.23;20.33;;;14.40;99.90;;;;;;5098592;28;20047;-56
2023/09/17 01:32:17;;;;;;;24.38;21.30;;;14.50;99.90;;;;;;5099959;28;20036;-56
2023/09/17 01:34:45;;;;;;;23.67;20.52;;;14.40;99.90;;;;;;5098967;28;20089;-55
2023/09/17 01:37:18;;;;;;;22.83;17.65;;;14.50;99.90;;;;;;5100312;28;20402;-56
2023/09/17 01:39:55;;;;;;;23.58;19.35;;;14.50;99.90;;;;;;5099146;28;20048;-56
2023/09/17 01:42:22;;;;;;;24.48;21.20;;;14.40;99.90;;;;;;5099024;28;20128;-56
2023/09/17 01:44:49;;;;;;;24.90;21.90;;;14.40;99.90;;;;;;5099830;28;20048;-57
2023/09/17 01:47:16;;;;;;;27.27;24.33;;;14.40;99.90;;;;;;5098702;28;20044;-57
2023/09/17 01:49:43;;;;;;;24.13;21.05;;;14.50;99.90;;;;;;5099601;28;20040;-56
2023/09/17 01:52:10;;;;;;;23.88;21.02;;;14.40;99.90;;;;;;5097285;28;20036;-55
2023/09/17 01:54:36;;;;;;;21.77;18.10;;;14.40;99.90;;;;;;5099753;28;20048;-56
2023/09/17 01:57:02;;;;;;;23.98;21.35;;;14.40;99.90;;;;;;5099198;28;20031;-56
2023/09/17 01:59:27;;;;;;;20.67;17.88;;;14.40;99.90;;;;;;5099003;28;20173;-56
2023/09/17 02:01:53;;;;;;;19.45;16.33;;;14.50;99.90;;;;;;5099317;28;20062;-56
2023/09/17 02:04:19;;;;;;;22.05;19.65;;;14.50;99.90;;;;;;5098380;28;20040;-57
2023/09/17 02:06:45;;;;;;;23.08;18.85;;;14.50;99.90;;;;;;5099682;28;20040;-57
2023/09/17 02:09:12;;;;;;;23.92;19.52;;;14.50;99.90;;;;;;5098283;28;20055;-56
2023/09/17 02:11:38;;;;;;;24.58;21.67;;;14.60;99.90;;;;;;5099937;28;20047;-57
2023/09/17 02:14:05;;;;;;;25.13;21.48;;;14.60;99.90;;;;;;5099142;28;20103;-57
2023/09/17 02:16:31;;;;;;;24.40;20.67;;;14.70;99.90;;;;;;5099230;28;20450;-57
2023/09/17 02:18:58;;;;;;;24.10;20.33;;;14.60;99.90;;;;;;5099148;28;20111;-56
2023/09/17 02:21:24;;;;;;;22.63;20.10;;;14.70;99.90;;;;;;5097001;28;20095;-56
2023/09/17 02:23:51;;;;;;;23.15;20.23;;;14.70;99.90;;;;;;5097971;28;20111;-56
2023/09/17 02:26:16;;;;;;;22.45;19.67;;;14.70;99.90;;;;;;5096935;28;20051;-56
2023/09/17 02:28:42;;;;;;;21.02;18.83;;;14.70;99.90;;;;;;5099359;28;20036;-56
2023/09/17 02:31:08;;;;;;;28.33;25.23;;;14.80;99.90;;;;;;5098686;28;20055;-56
2023/09/17 02:33:33;;;;;;;29.25;26.08;;;14.80;99.90;;;;;;5099087;28;20047;-56
2023/09/17 02:36:00;;;;;;;24.83;22.17;;;14.70;99.90;;;;;;5099395;28;20044;-57
2023/09/17 02:38:26;;;;;;;25.38;22.27;;;14.70;99.90;;;;;;5098087;28;20048;-56
2023/09/17 02:40:52;;;;;;;25.52;21.42;;;14.80;99.90;;;;;;5099723;28;20059;-56
2023/09/17 02:43:18;;;;;;;22.70;19.85;;;14.80;99.90;;;;;;5102021;28;20135;-60
2023/09/17 02:45:44;;;;;;;23.83;19.70;;;14.70;99.90;;;;;;5103319;28;20040;-57
2023/09/17 02:48:11;;;;;;;22.20;18.63;;;14.80;99.90;;;;;;5102252;28;20080;-56
2023/09/17 02:50:39;;;;;;;22.65;19.67;;;14.80;99.90;;;;;;5102422;28;20040;-56
2023/09/17 02:53:08;;;;;;;23.38;20.27;;;14.90;99.90;;;;;;5102656;28;20098;-56
2023/09/17 02:55:34;;;;;;;24.75;19.63;;;14.90;99.90;;;;;;5101815;28;20043;-56
2023/09/17 02:58:02;;;;;;;22.80;19.52;;;14.90;99.90;;;;;;5102796;28;20075;-56
2023/09/17 03:00:32;;;;;;;24.08;20.23;;;14.90;99.90;;;;;;5101461;28;20056;-56
2023/09/17 03:02:58;;;;;;;23.52;20.40;;;15.00;99.90;;;;;;5103144;28;20055;-56
2023/09/17 03:05:24;;;;;;;25.10;20.73;;;15.00;99.90;;;;;;5101957;28;20044;-56
2023/09/17 03:07:50;;;;;;;24.30;20.40;;;15.00;99.90;;;;;;5102377;28;20073;-56
2023/09/17 03:10:18;;;;;;;25.20;22.02;;;15.10;99.90;;;;;;5102468;28;20058;-56
2023/09/17 03:12:48;;;;;;;26.92;22.80;;;15.10;99.90;;;;;;5101678;28;20158;-57
2023/09/17 03:15:14;;;;;;;28.25;24.50;;;15.10;99.90;;;;;;5102811;28;20444;-57
2023/09/17 03:17:41;;;;;;;25.45;22.17;;;15.20;99.90;;;;;;5100122;28;20044;-57
2023/09/17 03:20:14;;;;;;;27.15;23.35;;;15.20;99.90;;;;;;5102330;28;20064;-57
2023/09/17 03:22:40;;;;;;;29.80;24.58;;;15.20;99.90;;;;;;5102022;28;20048;-56
2023/09/17 03:25:06;;;;;;;30.55;25.20;;;15.20;99.90;;;;;;5100371;28;20081;-57
2023/09/17 03:27:33;;;;;;;33.20;26.35;;;15.30;99.90;;;;;;5102128;28;20028;-56
2023/09/17 03:30:03;;;;;;;30.92;25.77;;;15.30;99.90;;;;;;5101282;28;20568;-57
2023/09/17 03:32:29;;;;;;;30.90;26.63;;;15.30;99.90;;;;;;5102298;28;20048;-56
2023/09/17 03:34:56;;;;;;;29.08;25.50;;;15.30;99.90;;;;;;5101044;28;20052;-56
2023/09/17 03:37:22;;;;;;;32.30;27.20;;;15.40;99.90;;;;;;5102405;28;20079;-56
2023/09/17 03:40:08;;;;;;;30.20;26.23;;;15.30;99.90;;;;;;5100249;28;20043;-56
2023/09/17 03:42:35;;;;;;;29.80;26.10;;;15.30;99.90;;;;;;5101018;28;20044;-56
2023/09/17 03:45:05;;;;;;;30.83;26.70;;;15.30;99.90;;;;;;5102119;28;20043;-56
2023/09/17 03:47:32;;;;;;;33.40;27.45;;;15.30;99.90;;;;;;5100760;28;20071;-57
2023/09/17 03:49:58;;;;;;;31.13;26.20;;;15.30;99.90;;;;;;5101886;28;20048;-56
2023/09/17 03:52:24;;;;;;;30.75;26.50;;;15.40;99.90;;;;;;5100652;28;20036;-57
2023/09/17 03:54:49;;;;;;;32.92;27.20;;;15.40;99.90;;;;;;5101628;28;20072;-57
2023/09/17 03:57:15;;;;;;;33.88;28.58;;;15.40;99.90;;;;;;5101576;28;20055;-56
2023/09/17 03:59:41;;;;;;;32.78;27.15;;;15.50;99.90;;;;;;5100671;28;20048;-57
2023/09/17 04:02:06;;;;;;;32.00;27.55;;;15.40;99.90;;;;;;5101528;28;20048;-57
2023/09/17 04:04:33;;;;;;;30.30;26.60;;;15.40;99.90;;;;;;5100387;28;20098;-57
2023/09/17 04:06:58;;;;;;;32.50;28.02;;;15.40;99.90;;;;;;5101624;28;20480;-57
2023/09/17 04:09:25;;;;;;;31.98;27.20;;;15.40;99.90;;;;;;5100541;28;20033;-58
2023/09/17 04:11:50;;;;;;;30.92;27.52;;;15.50;99.90;;;;;;5101595;28;20079;-56
2023/09/17 04:14:16;;;;;;;32.05;27.27;;;15.50;99.90;;;;;;5100932;28;20040;-57
2023/09/17 04:16:42;;;;;;;31.52;26.95;;;15.50;99.90;;;;;;5100557;28;20046;-57
2023/09/17 04:19:07;;;;;;;29.27;26.13;;;15.50;99.90;;;;;;5101001;28;20150;-57
2023/09/17 04:21:33;;;;;;;29.45;26.02;;;15.50;99.90;;;;;;5099953;28;20068;-57
2023/09/17 04:24:03;;;;;;;29.95;25.92;;;15.50;99.90;;;;;;5101596;28;20036;-56
2023/09/17 04:26:30;;;;;;;35.03;28.38;;;15.50;99.90;;;;;;5098746;28;20044;-57
2023/09/17 04:28:56;;;;;;;33.38;28.25;;;15.50;99.90;;;;;;5100948;28;20051;-58
2023/09/17 04:31:22;;;;;;;31.90;27.75;;;15.50;99.90;;;;;;5100680;28;20039;-57
2023/09/17 04:33:47;;;;;;;32.08;27.60;;;15.50;99.90;;;;;;5100400;28;20097;-57
2023/09/17 04:36:13;;;;;;;31.30;26.25;;;15.50;99.90;;;;;;5100994;28;20044;-57
2023/09/17 04:38:39;;;;;;;31.10;26.90;;;15.50;99.90;;;;;;5098293;28;20106;-55
2023/09/17 04:41:05;;;;;;;30.92;26.48;;;15.50;99.90;;;;;;5100878;28;20048;-57
2023/09/17 04:43:31;;;;;;;30.38;27.02;;;15.50;99.90;;;;;;5099473;28;20491;-58
2023/09/17 04:45:59;;;;;;;30.83;26.67;;;15.50;99.90;;;;;;5101042;28;20161;-57
2023/09/17 04:48:25;;;;;;;32.08;27.25;;;15.50;99.90;;;;;;5100457;28;20044;-57
2023/09/17 04:50:50;;;;;;;30.40;27.20;;;15.40;99.90;;;;;;5099820;28;20099;-57
2023/09/17 04:53:16;;;;;;;30.90;27.20;;;15.40;99.90;;;;;;5100895;28;20048;-56
2023/09/17 04:55:42;;;;;;;31.67;27.33;;;15.50;99.90;;;;;;5099472;28;20047;-59
2023/09/17 04:58:08;;;;;;;29.88;26.52;;;15.40;99.90;;;;;;5100475;28;20072;-57
2023/09/17 05:00:34;;;;;;;34.95;28.88;;;15.40;99.90;;;;;;5099187;28;20087;-58
2023/09/17 05:03:00;;;;;;;29.45;26.30;;;15.40;99.90;;;;;;5100153;28;20068;-57
2023/09/17 05:05:26;;;;;;;30.60;26.17;;;15.40;99.90;;;;;;5099314;28;20541;-57
2023/09/17 05:07:52;;;;;;;31.02;26.92;;;15.40;99.90;;;;;;5099712;28;20032;-57
2023/09/17 05:10:18;;;;;;;29.10;25.90;;;15.50;99.90;;;;;;5100239;28;20047;-57
2023/09/17 05:12:43;;;;;;;29.75;25.50;;;15.40;99.90;;;;;;5098987;28;20040;-58
2023/09/17 05:15:11;;;;;;;30.90;27.10;;;15.40;99.90;;;;;;5099254;28;20043;-59
2023/09/17 05:17:37;;;;;;;30.50;26.90;;;15.50;99.90;;;;;;5099214;28;20070;-58
2023/09/17 05:20:06;;;;;;;31.88;27.67;;;15.50;99.90;;;;;;5100361;28;20036;-59
2023/09/17 05:22:32;;;;;;;30.75;27.25;;;15.50;99.90;;;;;;5098245;28;20407;-58
2023/09/17 05:24:58;;;;;;;29.98;26.48;;;15.50;99.90;;;;;;5099564;28;20040;-56
2023/09/17 05:27:24;;;;;;;29.48;25.83;;;15.40;99.90;;;;;;5099667;28;20047;-56
2023/09/17 05:29:50;;;;;;;30.38;26.38;;;15.50;99.90;;;;;;5098936;28;20040;-56
2023/09/17 05:32:16;;;;;;;32.22;26.70;;;15.50;99.90;;;;;;5100049;28;20093;-57
2023/09/17 05:34:44;;;;;;;30.17;26.30;;;15.50;99.90;;;;;;5098816;28;20123;-56
2023/09/17 05:37:10;;;;;;;29.83;26.17;;;15.40;99.90;;;;;;5100315;28;20063;-56
2023/09/17 05:39:35;;;;;;;30.23;26.65;;;15.40;99.90;;;;;;5099190;28;20047;-56
2023/09/17 05:42:01;;;;;;;29.45;25.08;;;15.40;99.90;;;;;;5099574;28;20052;-57
2023/09/17 05:44:27;;;;;;;28.90;25.48;;;15.40;99.90;;;;;;5099667;28;20365;-57
2023/09/17 05:46:52;;;;;;;29.85;25.85;;;15.40;99.90;;;;;;5099027;28;20036;-56
2023/09/17 05:49:18;;;;;;;32.05;26.55;;;15.40;99.90;;;;;;5099806;28;20517;-56
2023/09/17 05:51:44;;;;;;;32.65;27.30;;;15.50;99.90;;;;;;5098723;28;20072;-57
2023/09/17 05:54:10;;;;;;;33.47;28.08;;;15.50;99.90;;;;;;5099900;28;20112;-55
2023/09/17 05:56:35;;;;;;;32.72;28.05;;;15.50;99.90;;;;;;5097489;28;20491;-56
2023/09/17 05:59:01;;;;;;;34.28;28.77;;;15.60;99.90;;;;;;5099779;28;20140;-57
2023/09/17 06:01:27;;;;;;;34.97;28.85;;;15.60;99.90;;;;;;5099341;28;20051;-57
2023/09/17 06:03:53;;;;;;;34.03;27.92;;;15.60;99.90;;;;;;5098705;28;20136;-57
2023/09/17 06:06:18;;;;;;;33.95;28.73;;;15.70;99.90;;;;;;5099712;28;20519;-56
2023/09/17 06:08:44;;;;;;;34.38;30.08;;;15.70;99.90;;;;;;5098499;28;20060;-57
2023/09/17 06:11:11;;;;;;;34.83;28.98;;;15.70;99.90;;;;;;5099840;28;20040;-57
2023/09/17 06:13:36;;;;;;;33.20;28.13;;;15.70;99.90;;;;;;5098620;28;20040;-57
2023/09/17 06:16:02;;;;;;;33.03;28.88;;;15.80;99.90;;;;;;5102108;28;20074;-57
2023/09/17 06:18:32;;;;;;;36.42;30.23;;;15.80;99.90;;;;;;5101937;28;20048;-57
2023/09/17 06:20:58;;;;;;;37.50;30.58;;;15.80;99.90;;;;;;5102514;28;20121;-58
2023/09/17 06:23:24;;;;;;;34.22;29.27;;;15.80;99.90;;;;;;5103535;28;20051;-58
2023/09/17 06:25:50;;;;;;;34.95;29.65;;;15.90;99.90;;;;;;5102346;28;20048;-58
2023/09/17 06:28:16;;;;;;;36.67;30.95;;;15.90;99.90;;;;;;5103842;28;20032;-58
2023/09/17 06:30:42;;;;;;;34.78;29.33;;;16.00;99.90;;;;;;5102561;28;20097;-58
2023/09/17 06:33:08;;;;;;;35.50;30.02;;;16.00;99.90;;;;;;5103553;28;20048;-57
2023/09/17 06:35:34;;;;;;;36.00;30.33;;;16.00;99.90;;;;;;5102744;28;20096;-57
2023/09/17 06:37:59;;;;;;;35.13;29.30;;;16.00;99.90;;;;;;5102344;28;20066;-58
2023/09/17 06:40:25;;;;;;;38.63;29.98;;;16.10;99.90;;;;;;5103230;28;20502;-57
2023/09/17 06:42:51;;;;;;;36.05;30.85;;;16.10;99.90;;;;;;5102144;28;20040;-57
2023/09/17 06:45:18;;;;;;;36.85;30.35;;;16.20;99.90;;;;;;5103477;28;20040;-57
2023/09/17 06:47:44;;;;;;;36.40;29.30;;;16.20;99.90;;;;;;5102186;28;20040;-58
2023/09/17 06:50:10;;;;;;;34.20;29.27;;;16.20;99.90;;;;;;5101511;28;20048;-58
2023/09/17 06:52:36;;;;;;;36.75;29.60;;;16.30;99.90;;;;;;5102480;28;20043;-58
2023/09/17 06:55:04;;;;;;;38.72;30.05;;;16.30;99.90;;;;;;5102400;28;20036;-58
2023/09/17 06:57:31;;;;;;;36.13;30.27;;;16.30;99.90;;;;;;5102680;28;20056;-58
2023/09/17 06:59:56;;;;;;;35.97;30.63;;;16.40;99.90;;;;;;5101852;28;20044;-58
2023/09/17 07:02:22;;;;;;;37.78;29.88;;;16.40;99.90;;;;;;5102792;28;20088;-59
2023/09/17 07:04:48;;;;;;;36.40;30.80;;;16.50;99.90;;;;;;5100416;28;20142;-58
2023/09/17 07:07:14;;;;;;;35.65;30.13;;;16.50;99.90;;;;;;5103054;28;20051;-58
2023/09/17 07:09:39;;;;;;;34.63;29.73;;;16.60;99.90;;;;;;5102124;28;20097;-58
2023/09/17 07:12:06;;;;;;;35.28;29.67;;;16.70;99.90;;;;;;5102287;28;20048;-59
2023/09/17 07:14:31;;;;;;;32.85;28.52;;;16.70;99.90;;;;;;5102523;28;20032;-58
2023/09/17 07:16:57;;;;;;;34.10;30.40;;;16.80;99.90;;;;;;5101546;28;20089;-57
2023/09/17 07:19:23;;;;;;;33.85;28.60;;;16.80;99.90;;;;;;5101231;28;20039;-58
2023/09/17 07:21:48;;;;;;;35.60;28.85;;;16.90;99.90;;;;;;5101141;28;20051;-58
2023/09/17 07:24:14;;;;;;;34.67;29.27;;;17.00;99.90;;;;;;5102826;28;20044;-58
2023/09/17 07:26:41;;;;;;;35.88;29.40;;;17.10;99.90;;;;;;5101072;28;20040;-57
2023/09/17 07:29:07;;;;;;;32.20;28.17;;;17.10;99.90;;;;;;5102053;28;20052;-58
2023/09/17 07:31:33;;;;;;;33.97;28.88;;;17.10;99.90;;;;;;5101996;28;20051;-58
2023/09/17 07:33:58;;;;;;;33.47;28.55;;;17.20;99.90;;;;;;5101254;28;20040;-58
2023/09/17 07:36:24;;;;;;;35.13;29.42;;;17.20;99.90;;;;;;5101894;28;20044;-58
2023/09/17 07:38:51;;;;;;;35.58;29.75;;;17.30;99.90;;;;;;5101104;28;20040;-58
2023/09/17 07:41:17;;;;;;;34.10;30.33;;;17.30;99.90;;;;;;5102370;28;20043;-58
2023/09/17 07:43:43;;;;;;;35.03;29.48;;;17.30;99.90;;;;;;5101154;28;20109;-57
2023/09/17 07:46:13;;;;;;;35.80;30.35;;;17.40;99.90;;;;;;5101879;28;20103;-57
2023/09/17 07:48:39;;;;;;;34.97;29.20;;;17.40;99.90;;;;;;5101381;28;20088;-57
2023/09/17 07:51:05;;;;;;;33.22;28.60;;;17.50;99.90;;;;;;5100900;28;20103;-58
2023/09/17 07:53:32;;;;;;;33.55;28.67;;;17.50;99.90;;;;;;5101879;28;20386;-57
2023/09/17 07:55:58;;;;;;;35.00;29.20;;;17.60;99.90;;;;;;5100534;28;20305;-58
2023/09/17 07:58:24;;;;;;;35.88;30.50;;;17.60;99.90;;;;;;5102009;28;20046;-57
2023/09/17 08:00:50;;;;;;;35.55;29.48;;;17.60;99.90;;;;;;5100875;28;20119;-57
2023/09/17 08:03:17;;;;;;;35.40;29.52;;;17.60;99.90;;;;;;5101425;28;20066;-57
2023/09/17 08:05:46;;;;;;;37.22;29.70;;;17.60;99.90;;;;;;5101396;28;20051;-58
2023/09/17 08:08:13;;;;;;;37.30;30.00;;;17.70;99.90;;;;;;5100792;28;20082;-57
2023/09/17 08:10:38;;;;;;;37.13;29.90;;;17.70;99.90;;;;;;5101584;28;20044;-56
2023/09/17 08:13:05;;;;;;;38.30;29.15;;;17.70;99.90;;;;;;5100288;28;20074;-58
2023/09/17 08:15:30;;;;;;;33.97;28.02;;;17.70;99.90;;;;;;5101756;28;20059;-57
2023/09/17 08:17:57;;;;;;;38.22;30.33;;;17.70;99.90;;;;;;5100386;28;20036;-55
2023/09/17 08:20:23;;;;;;;34.72;28.02;;;17.70;99.90;;;;;;5100822;28;20066;-58
2023/09/17 08:22:51;;;;;;;35.33;29.08;;;17.70;99.90;;;;;;5101225;28;20050;-59
2023/09/17 08:25:18;;;;;;;35.17;28.80;;;17.70;99.90;;;;;;5100382;28;20127;-59
2023/09/17 08:27:44;;;;;;;35.47;28.77;;;17.70;99.90;;;;;;5101369;28;20452;-58
2023/09/17 08:30:13;;;;;;;35.75;29.17;;;17.70;99.90;;;;;;5100259;28;20405;-59
2023/09/17 08:32:44;;;;;;;36.70;29.60;;;17.70;99.90;;;;;;5101271;28;20214;-58
2023/09/17 08:35:13;;;;;;;37.60;28.88;;;17.70;99.90;;;;;;5100620;28;20048;-57
2023/09/17 08:37:39;;;;;;;37.47;28.27;;;17.80;99.90;;;;;;5101043;28;20047;-56
2023/09/17 08:40:13;;;;;;;36.53;28.90;;;17.70;99.90;;;;;;5099856;28;20048;-57
2023/09/17 08:42:41;;;;;;;37.35;29.17;;;17.70;99.90;;;;;;5098649;28;20052;-58
2023/09/17 08:45:09;;;;;;;38.72;29.70;;;17.80;99.90;;;;;;5101035;28;20036;-57
2023/09/17 08:47:35;;;;;;;36.13;29.08;;;17.80;99.90;;;;;;5099762;28;20650;-58
2023/09/17 08:50:01;;;;;;;37.75;29.50;;;17.70;99.90;;;;;;5100888;28;20052;-58
2023/09/17 08:52:31;;;;;;;36.33;28.88;;;17.70;99.90;;;;;;5100153;28;20032;-57
2023/09/17 08:54:58;;;;;;;36.92;28.75;;;17.70;99.90;;;;;;5100348;28;20091;-58
2023/09/17 08:57:26;;;;;;;36.35;27.92;;;17.70;99.90;;;;;;5100517;28;20068;-57
2023/09/17 09:00:10;;;;;;;33.47;27.27;;;17.70;99.90;;;;;;5089578;28;20498;-46
2023/09/17 09:02:59;;;;;;;31.10;25.95;;;17.80;99.90;;;;;;5089426;28;20424;-49
2023/09/17 09:05:27;;;;;;;28.63;23.85;;;17.80;99.90;;;;;;5089749;28;20044;-46
2023/09/17 09:07:55;;;;;;;30.23;23.40;;;17.80;99.90;;;;;;5089527;28;20588;-45
2023/09/17 09:10:22;;;;;;;28.55;22.38;;;17.80;99.90;;;;;;5089388;28;20150;-49
2023/09/17 09:12:49;;;;;;;27.48;22.00;;;17.80;99.90;;;;;;5089657;28;20083;-46
2023/09/17 09:15:15;;;;;;;27.83;21.45;;;17.80;99.90;;;;;;5089292;28;20040;-47
2023/09/17 09:17:41;;;;;;;25.98;19.90;;;17.80;99.90;;;;;;5089457;28;20035;-48
2023/09/17 09:20:11;;;;;;;23.05;18.40;;;17.70;99.90;;;;;;5089235;28;20146;-50
2023/09/17 09:22:46;;;;;;;23.25;18.70;;;17.80;99.90;;;;;;5089299;28;20047;-47
2023/09/17 09:25:15;;;;;;;20.98;16.92;;;17.80;99.90;;;;;;5089243;28;20101;-46
2023/09/17 09:27:42;;;;;;;21.95;17.17;;;17.90;96.70;;;;;;5089055;28;20044;-46
2023/09/17 09:30:10;;;;;;;18.90;15.40;;;18.00;93.20;;;;;;5089102;28;20288;-46
2023/09/17 09:32:38;;;;;;;20.70;16.23;;;18.10;96.10;;;;;;5089246;28;20036;-45
2023/09/17 09:35:05;;;;;;;19.48;16.38;;;18.20;96.10;;;;;;5089146;28;20085;-49
2023/09/17 09:37:31;;;;;;;20.50;17.33;;;18.20;96.70;;;;;;5089123;28;20115;-47
2023/09/17 09:39:58;;;;;;;18.27;15.95;;;18.30;96.00;;;;;;5088959;28;20047;-46
2023/09/17 09:42:26;;;;;;;20.10;16.33;;;18.30;95.40;;;;;;5088767;28;20048;-48
2023/09/17 09:44:52;;;;;;;17.75;14.93;;;18.20;88.60;;;;;;5088731;28;20036;-49
2023/09/17 09:47:21;;;;;;;18.73;15.57;;;18.20;78.20;;;;;;5088881;28;20044;-46
2023/09/17 09:49:47;;;;;;;17.95;14.45;;;18.20;79.40;;;;;;5088453;28;20063;-47
2023/09/17 09:52:15;;;;;;;20.42;15.38;;;18.20;84.80;;;;;;5088906;28;20480;-48
2023/09/17 09:54:42;;;;;;;17.77;14.18;;;18.10;85.70;;;;;;5088378;28;20040;-48
2023/09/17 09:57:11;;;;;;;18.92;15.27;;;18.10;83.20;;;;;;5088553;28;20044;-45
2023/09/17 09:59:37;;;;;;;18.17;14.15;;;18.00;86.70;;;;;;5088040;28;20063;-46
2023/09/17 10:02:08;;;;;;;16.00;12.55;;;18.00;79.40;;;;;;5088315;28;20496;-45
2023/09/17 10:04:37;;;;;;;17.35;12.98;;;17.90;76.70;;;;;;5088392;28;20041;-49
2023/09/17 10:07:04;;;;;;;16.65;12.00;;;17.90;77.00;;;;;;5088532;28;20090;-45
2023/09/17 10:09:30;;;;;;;16.02;12.60;;;17.90;80.70;;;;;;5086170;28;20084;-46
2023/09/17 10:11:58;;;;;;;16.67;12.55;;;17.90;78.40;;;;;;5073542;28;20040;-47
2023/09/17 10:14:26;;;;;;;16.17;12.40;;;17.80;77.60;;;;;;5074783;28;20431;-45
2023/09/17 10:16:54;;;;;;;15.02;11.70;;;17.80;78.60;;;;;;5074633;28;20036;-48
2023/09/17 10:19:21;;;;;;;16.85;12.52;;;17.80;78.80;;;;;;5074557;28;20044;-48
2023/09/17 10:21:52;;;;;;;16.98;12.57;;;17.80;75.70;;;;;;5074797;28;20044;-48
2023/09/17 10:24:19;;;;;;;14.40;11.85;;;17.80;75.50;;;;;;5074574;28;20040;-46
2023/09/17 10:26:45;;;;;;;17.92;12.88;;;17.90;79.10;;;;;;5074743;28;20043;-46
2023/09/17 10:29:13;;;;;;;17.80;13.05;;;17.80;84.00;;;;;;5074702;28;20048;-45
2023/09/17 10:31:40;;;;;;;16.20;13.07;;;17.90;86.40;;;;;;5074632;28;20400;-48
2023/09/17 10:34:08;;;;;;;15.65;12.55;;;17.80;90.10;;;;;;5074562;28;20414;-46
2023/09/17 10:36:37;;;;;;;17.10;13.60;;;17.90;90.60;;;;;;5072963;28;20051;-50
2023/09/17 10:39:06;;;;;;;17.20;13.98;;;17.90;93.20;;;;;;5074436;28;20140;-49
2023/09/17 10:41:36;;;;;;;16.92;13.43;;;18.00;95.30;;;;;;5073010;28;20115;-47
2023/09/17 10:44:03;;;;;;;18.00;14.32;;;17.90;98.80;;;;;;5074164;28;20052;-47
2023/09/17 10:46:31;;;;;;;18.23;15.13;;;18.00;99.90;;;;;;5073047;28;20420;-47
2023/09/17 10:48:58;;;;;;;17.52;14.35;;;17.90;99.90;;;;;;5074211;28;20097;-50
2023/09/17 10:51:26;;;;;;;18.55;15.57;;;18.00;99.90;;;;;;5073911;28;20115;-46
2023/09/17 10:53:53;;;;;;;19.75;15.95;;;18.00;99.90;;;;;;5056110;28;20037;-45
2023/09/17 10:56:20;;;;;;;21.02;17.15;;;18.00;99.90;;;;;;5073910;28;20397;-48
2023/09/17 10:58:50;;;;;;;18.88;16.65;;;18.10;99.90;;;;;;5073599;28;20060;-48
2023/09/17 11:01:24;;;;;;;21.15;16.20;;;18.20;99.90;;;;;;5073768;28;20048;-45
2023/09/17 11:03:58;;;;;;;19.95;16.55;;;18.20;99.90;;;;;;5073776;28;20047;-49
2023/09/17 11:06:25;;;;;;;19.85;17.42;;;18.30;99.90;;;;;;5073675;28;20036;-47
2023/09/17 11:08:56;;;;;;;20.08;17.13;;;18.30;99.90;;;;;;5073610;28;20062;-46
2023/09/17 11:11:24;;;;;;;20.42;17.92;;;18.40;99.90;;;;;;5073879;28;20785;-50
2023/09/17 11:13:52;;;;;;;20.98;18.00;;;18.30;99.90;;;;;;5072469;28;20396;-48
2023/09/17 11:16:23;;;;;;;22.35;18.67;;;18.40;99.90;;;;;;5073660;28;20040;-48
2023/09/17 11:19:08;;;;;;;;;;;18.30;99.90;;;;;;5073878;28;20346;-46
2023/09/17 11:21:42;;;;;;;19.60;16.30;;;18.30;99.90;;;;;;5072806;28;20439;-46
2023/09/17 11:24:13;;;;;;;23.77;17.77;;;18.20;99.90;;;;;;5073579;28;20047;-46
2023/09/17 11:26:41;;;;;;;23.40;17.55;;;18.30;99.90;;;;;;5071988;28;20116;-47
2023/09/17 11:29:08;;;;;;;22.35;17.17;;;18.30;99.90;;;;;;5072005;28;20044;-46
2023/09/17 11:32:00;;;;;;;22.63;18.25;;;18.30;99.90;;;;;;5072144;28;20044;-47
2023/09/17 11:34:26;;;;;;;21.90;18.17;;;18.40;99.90;;;;;;5073423;28;20102;-46
2023/09/17 11:36:52;;;;;;;21.48;17.98;;;18.50;99.90;;;;;;5073459;28;20472;-47
2023/09/17 11:39:21;;;;;;;19.52;17.42;;;18.50;99.90;;;;;;5073116;28;20052;-46
2023/09/17 11:41:52;;;;;;;18.88;16.88;;;18.50;99.90;;;;;;5073040;28;20075;-45
2023/09/17 11:44:20;;;;;;;19.88;16.70;;;18.50;99.90;;;;;;5073036;28;20051;-47
2023/09/17 11:46:46;;;;;;;20.15;16.20;;;18.50;99.90;;;;;;5073146;28;20033;-47
2023/09/17 11:49:12;;;;;;;21.05;17.20;;;18.70;99.90;;;;;;5072831;28;20054;-46
2023/09/17 11:51:46;;;;;;;19.02;16.92;;;18.80;99.90;;;;;;5073052;28;20069;-45
2023/09/17 11:54:16;;;;;;;20.60;16.75;;;18.80;99.90;;;;;;5072843;28;20051;-46
2023/09/17 11:56:47;;;;;;;22.52;16.40;;;18.80;99.90;;;;;;5072893;28;20051;-46
2023/09/17 11:59:16;;;;;;;;;;;18.70;99.90;;;;;;5071680;28;20056;-45
2023/09/17 12:01:47;;;;;;;24.75;15.93;;;18.70;99.90;;;;;;5072632;28;20352;-46
2023/09/17 12:04:13;;;;;;;;;;;18.60;99.90;;;;;;5072029;28;20366;-48
2023/09/17 12:06:45;;;;;;;21.98;16.00;;;18.60;99.90;;;;;;5072886;28;19946;-51
2023/09/17 12:09:23;;;;;;;19.48;17.35;;;18.60;99.90;;;;;;5072445;28;20041;-46
2023/09/17 12:11:50;;;;;;;21.20;16.45;;;18.60;99.90;;;;;;5072609;28;20051;-46
2023/09/17 12:14:19;;;;;;;20.90;17.80;;;18.60;99.90;;;;;;5072290;28;20041;-46
2023/09/17 12:16:48;;;;;;;24.63;18.60;;;18.60;99.90;;;;;;5072332;28;20040;-54
2023/09/17 12:19:14;;;;;;;20.85;18.17;;;18.60;99.90;;;;;;5072553;28;20384;-46
2023/09/17 12:21:40;;;;;;;22.00;18.95;;;18.60;99.90;;;;;;5072176;28;20032;-46
2023/09/17 12:24:08;;;;;;;22.77;19.67;;;18.60;99.90;;;;;;5072620;28;20040;-46
2023/09/17 12:29:37;;;;;;;24.23;19.38;;;18.60;99.90;;;;;;5072278;28;20051;-47
2023/09/17 12:32:04;;;;;;;25.75;19.95;;;18.70;99.90;;;;;;5072190;28;20045;-46